This is the latest recevied weather packets stored in our database for station/object S51UL-6. If no packets are shown the sender has not sent any weather packets the latest 10 day(s).
| Time | Temp. | Humidity | Pressure | Rain* | Wind** | Luminosity | Snow |
|---|---|---|---|---|---|---|---|
| 1787830976 | 35.56° C | 47% | 1017.1 hPa | 0 mm | - | - | - |
| 1787830676 | 35° C | 50% | 1017.1 hPa | 0 mm | - | - | - |
| 1787830377 | 34.44° C | 50% | 1017.4 hPa | 0 mm | - | - | - |
| 1787829177 | 31.67° C | 54% | 1017.2 hPa | 0 mm | - | - | - |
| 1787828879 | 31.67° C | 54% | 1017.2 hPa | 0 mm | - | - | - |
| 1787828277 | 32.22° C | 54% | 1017.2 hPa | 0 mm | - | - | - |
| 1787827977 | 31.67° C | 57% | 1017.1 hPa | 0 mm | - | - | - |
| 1787827077 | 30° C | 57% | 1017.4 hPa | 0 mm | - | - | - |
| 1787826777 | 29.44° C | 57% | 1017.5 hPa | 0 mm | - | - | - |
| 1787826477 | 29.44° C | 56% | 1017.5 hPa | 0 mm | - | - | - |
| 1787826177 | 29.44° C | 56% | 1017.6 hPa | 0 mm | - | - | - |
| 1787825877 | 29.44° C | 57% | 1017.6 hPa | 0 mm | - | - | - |
| 1787825577 | 29.44° C | 57% | 1017.7 hPa | 0 mm | - | - | - |
| 1787824977 | 29.44° C | 59% | 1017.7 hPa | 0 mm | - | - | - |
| 1787824677 | 29.44° C | 58% | 1017.8 hPa | 0 mm | - | - | - |
| 1787824377 | 29.44° C | 58% | 1017.9 hPa | 0 mm | - | - | - |
| 1787824078 | 29.44° C | 59% | 1017.6 hPa | 0 mm | - | - | - |
| 1787823478 | 28.89° C | 59% | 1017.4 hPa | 0 mm | - | - | - |
| 1787823178 | 28.89° C | 59% | 1017.5 hPa | 0 mm | - | - | - |
| 1787822878 | 28.89° C | 59% | 1017.5 hPa | 0 mm | - | - | - |
| 1787822578 | 28.89° C | 59% | 1017.6 hPa | 0 mm | - | - | - |
| 1787822278 | 28.33° C | 61% | 1017.6 hPa | 0 mm | - | - | - |
| 1787821978 | 28.33° C | 61% | 1017.5 hPa | 0 mm | - | - | - |
| 1787820778 | 28.33° C | 61% | 1017.7 hPa | 0 mm | - | - | - |
| 1787819878 | 28.33° C | 61% | 1017.9 hPa | 0 mm | - | - | - |
* Rain latest hour (hover to see other rain measurements)
** Current wind speed in m/s (hover to see current wind gust speed)